aviador You're here:

OMFJ Decoded Metar

FUJEIRAH in UNITED ARAB EMIRATES
Report Time2017-11-24 09:00:00
UTC Time2017-11-24 09:08:27
Flight Rules mvfr MVFR
Wind060° at 08 kt
W.Decomp.*RWY 11: 5.1 kt HW 6.1 kt LCW
W.Rank060° ranks 11
Current wind is above 060° avg. (6.4)
Visibility7000 m
Phenomena:N/A
Clouds:Few 030 Hf
Expected CloudBase > 4,400 ft AGL from Temp-Dew spread
CeilingNone
Temp28°C (ISA +13)
Dew Point17°C (51% RH)
Heat Index28.5°C
AAT27.5°C
QNH1015 hPa
Density Alt1,801 ft
Elevation92 ft
Report Wrong Elevation
Raw Report
METAR OMFJ 240900Z 06008KT 020V100 7000 FEW030 28/17 Q1015 A2998=

Extra information for OMFJ:More info

Metar Taf Metar & Taf Last 4 Metars F.Rules Stats Wind Profile Meteogram Temp Stats Airport Information Weather charts Add Link Nearby VenuesMetar ALERT Operation Metar Decoded Social comments